sensor_id;sensor_type;location;lat;lon;timestamp;temperature;humidity
6664;DHT22;58749;48.022;10.922;2022-09-12T00:01:23;14.90;99.90
6664;DHT22;58749;48.022;10.922;2022-09-12T00:03:52;14.80;99.90
6664;DHT22;58749;48.022;10.922;2022-09-12T00:06:22;14.80;99.90
6664;DHT22;58749;48.022;10.922;2022-09-12T00:08:53;14.80;99.90
6664;DHT22;58749;48.022;10.922;2022-09-12T00:11:22;14.70;99.90
6664;DHT22;58749;48.022;10.922;2022-09-12T00:13:50;14.70;99.90
6664;DHT22;58749;48.022;10.922;2022-09-12T00:16:20;14.60;99.90
6664;DHT22;58749;48.022;10.922;2022-09-12T00:18:48;14.60;99.90
6664;DHT22;58749;48.022;10.922;2022-09-12T00:21:18;14.60;99.90
6664;DHT22;58749;48.022;10.922;2022-09-12T00:23:46;14.60;99.90
6664;DHT22;58749;48.022;10.922;2022-09-12T00:26:17;14.60;99.90
6664;DHT22;58749;48.022;10.922;2022-09-12T00:28:46;14.60;99.90
6664;DHT22;58749;48.022;10.922;2022-09-12T00:31:16;14.60;99.90
6664;DHT22;58749;48.022;10.922;2022-09-12T00:33:45;14.70;99.90
6664;DHT22;58749;48.022;10.922;2022-09-12T00:36:15;14.70;99.90
6664;DHT22;58749;48.022;10.922;2022-09-12T00:38:44;14.60;99.90
6664;DHT22;58749;48.022;10.922;2022-09-12T00:41:17;14.70;99.90
6664;DHT22;58749;48.022;10.922;2022-09-12T00:43:47;14.70;99.90
6664;DHT22;58749;48.022;10.922;2022-09-12T00:46:28;14.70;99.90
6664;DHT22;58749;48.022;10.922;2022-09-12T00:49:00;14.60;99.90
6664;DHT22;58749;48.022;10.922;2022-09-12T00:51:32;14.70;99.90
6664;DHT22;58749;48.022;10.922;2022-09-12T00:54:05;14.60;99.90
6664;DHT22;58749;48.022;10.922;2022-09-12T00:56:37;14.60;99.90
6664;DHT22;58749;48.022;10.922;2022-09-12T00:59:10;14.60;99.90
6664;DHT22;58749;48.022;10.922;2022-09-12T01:01:39;14.60;99.90
6664;DHT22;58749;48.022;10.922;2022-09-12T01:04:09;14.60;99.90
6664;DHT22;58749;48.022;10.922;2022-09-12T01:06:39;14.60;99.90
6664;DHT22;58749;48.022;10.922;2022-09-12T01:09:10;14.60;99.90
6664;DHT22;58749;48.022;10.922;2022-09-12T01:11:41;14.60;99.90
6664;DHT22;58749;48.022;10.922;2022-09-12T01:14:12;14.60;99.90
6664;DHT22;58749;48.022;10.922;2022-09-12T01:16:40;14.60;99.90
6664;DHT22;58749;48.022;10.922;2022-09-12T01:19:26;14.60;99.90
6664;DHT22;58749;48.022;10.922;2022-09-12T01:22:06;14.60;99.90
6664;DHT22;58749;48.022;10.922;2022-09-12T01:24:53;14.60;99.90
6664;DHT22;58749;48.022;10.922;2022-09-12T01:27:49;14.50;99.90
6664;DHT22;58749;48.022;10.922;2022-09-12T01:30:45;14.50;99.90
6664;DHT22;58749;48.022;10.922;2022-09-12T01:33:41;14.50;99.90
6664;DHT22;58749;48.022;10.922;2022-09-12T01:36:33;14.50;99.90
6664;DHT22;58749;48.022;10.922;2022-09-12T01:39:05;14.50;99.90
6664;DHT22;58749;48.022;10.922;2022-09-12T01:41:43;14.50;99.90
6664;DHT22;58749;48.022;10.922;2022-09-12T01:44:22;14.50;99.90
6664;DHT22;58749;48.022;10.922;2022-09-12T01:46:56;14.40;99.90
6664;DHT22;58749;48.022;10.922;2022-09-12T01:49:30;14.40;99.90
6664;DHT22;58749;48.022;10.922;2022-09-12T01:52:03;14.40;99.90
6664;DHT22;58749;48.022;10.922;2022-09-12T01:54:36;14.40;99.90
6664;DHT22;58749;48.022;10.922;2022-09-12T01:57:11;14.40;99.90
6664;DHT22;58749;48.022;10.922;2022-09-12T01:59:43;14.40;99.90
6664;DHT22;58749;48.022;10.922;2022-09-12T02:02:15;14.40;99.90
6664;DHT22;58749;48.022;10.922;2022-09-12T02:04:48;14.40;99.90
6664;DHT22;58749;48.022;10.922;2022-09-12T02:07:20;14.40;99.90
6664;DHT22;58749;48.022;10.922;2022-09-12T02:09:53;14.40;99.90
6664;DHT22;58749;48.022;10.922;2022-09-12T02:12:26;14.30;99.90
6664;DHT22;58749;48.022;10.922;2022-09-12T02:14:58;14.30;99.90
6664;DHT22;58749;48.022;10.922;2022-09-12T02:17:31;14.30;99.90
6664;DHT22;58749;48.022;10.922;2022-09-12T02:20:07;14.30;99.90
6664;DHT22;58749;48.022;10.922;2022-09-12T02:22:56;14.30;99.90
6664;DHT22;58749;48.022;10.922;2022-09-12T02:25:26;14.30;99.90
6664;DHT22;58749;48.022;10.922;2022-09-12T02:28:00;14.30;99.90
6664;DHT22;58749;48.022;10.922;2022-09-12T02:30:36;14.30;99.90
6664;DHT22;58749;48.022;10.922;2022-09-12T02:33:13;14.20;99.90
6664;DHT22;58749;48.022;10.922;2022-09-12T02:35:46;14.20;99.90
6664;DHT22;58749;48.022;10.922;2022-09-12T02:38:19;14.20;99.90
6664;DHT22;58749;48.022;10.922;2022-09-12T02:40:51;14.20;99.90
6664;DHT22;58749;48.022;10.922;2022-09-12T02:43:19;14.20;99.90
6664;DHT22;58749;48.022;10.922;2022-09-12T02:45:47;14.20;99.90
6664;DHT22;58749;48.022;10.922;2022-09-12T02:48:20;14.20;99.90
6664;DHT22;58749;48.022;10.922;2022-09-12T02:50:49;14.10;99.90
6664;DHT22;58749;48.022;10.922;2022-09-12T02:53:35;14.10;99.90
6664;DHT22;58749;48.022;10.922;2022-09-12T02:56:25;14.10;99.90
6664;DHT22;58749;48.022;10.922;2022-09-12T02:59:14;14.10;99.90
6664;DHT22;58749;48.022;10.922;2022-09-12T03:02:14;14.10;99.90
6664;DHT22;58749;48.022;10.922;2022-09-12T03:05:20;14.10;99.90
6664;DHT22;58749;48.022;10.922;2022-09-12T03:08:18;14.10;99.90
6664;DHT22;58749;48.022;10.922;2022-09-12T03:11:14;14.10;99.90
6664;DHT22;58749;48.022;10.922;2022-09-12T03:14:09;14.10;99.90
6664;DHT22;58749;48.022;10.922;2022-09-12T03:17:06;14.10;99.90
6664;DHT22;58749;48.022;10.922;2022-09-12T03:19:58;14.00;99.90
6664;DHT22;58749;48.022;10.922;2022-09-12T03:22:51;14.00;99.90
6664;DHT22;58749;48.022;10.922;2022-09-12T03:25:40;14.00;99.90
6664;DHT22;58749;48.022;10.922;2022-09-12T03:28:28;13.90;99.90
6664;DHT22;58749;48.022;10.922;2022-09-12T03:31:15;13.90;99.90
6664;DHT22;58749;48.022;10.922;2022-09-12T03:34:00;13.90;99.90
6664;DHT22;58749;48.022;10.922;2022-09-12T03:36:46;13.90;99.90
6664;DHT22;58749;48.022;10.922;2022-09-12T03:39:34;13.80;99.90
6664;DHT22;58749;48.022;10.922;2022-09-12T03:42:19;13.90;99.90
6664;DHT22;58749;48.022;10.922;2022-09-12T03:45:06;13.80;99.90
6664;DHT22;58749;48.022;10.922;2022-09-12T03:47:52;13.80;99.90
6664;DHT22;58749;48.022;10.922;2022-09-12T03:50:37;13.80;99.90
6664;DHT22;58749;48.022;10.922;2022-09-12T03:53:23;13.80;99.90
6664;DHT22;58749;48.022;10.922;2022-09-12T03:56:12;13.80;99.90
6664;DHT22;58749;48.022;10.922;2022-09-12T03:58:58;13.80;99.90
6664;DHT22;58749;48.022;10.922;2022-09-12T04:01:44;13.80;99.90
6664;DHT22;58749;48.022;10.922;2022-09-12T04:04:29;13.80;99.90
6664;DHT22;58749;48.022;10.922;2022-09-12T04:07:15;13.80;99.90
6664;DHT22;58749;48.022;10.922;2022-09-12T04:10:01;13.80;99.90
6664;DHT22;58749;48.022;10.922;2022-09-12T04:12:48;13.80;99.90
6664;DHT22;58749;48.022;10.922;2022-09-12T04:15:34;13.80;99.90
6664;DHT22;58749;48.022;10.922;2022-09-12T04:18:19;13.80;99.90
6664;DHT22;58749;48.022;10.922;2022-09-12T04:21:07;13.80;99.90
6664;DHT22;58749;48.022;10.922;2022-09-12T04:23:53;13.70;99.90
6664;DHT22;58749;48.022;10.922;2022-09-12T04:26:39;13.70;99.90
6664;DHT22;58749;48.022;10.922;2022-09-12T04:29:26;13.60;99.90
6664;DHT22;58749;48.022;10.922;2022-09-12T04:32:12;13.50;99.90
6664;DHT22;58749;48.022;10.922;2022-09-12T04:34:58;13.40;99.90
6664;DHT22;58749;48.022;10.922;2022-09-12T04:37:43;13.40;99.90
6664;DHT22;58749;48.022;10.922;2022-09-12T04:40:29;13.40;99.90
6664;DHT22;58749;48.022;10.922;2022-09-12T04:43:29;13.40;99.90
6664;DHT22;58749;48.022;10.922;2022-09-12T04:46:16;13.30;99.90
6664;DHT22;58749;48.022;10.922;2022-09-12T04:49:03;13.20;99.90
6664;DHT22;58749;48.022;10.922;2022-09-12T04:51:48;13.20;99.90
6664;DHT22;58749;48.022;10.922;2022-09-12T04:54:36;13.20;99.90
6664;DHT22;58749;48.022;10.922;2022-09-12T04:57:22;13.30;99.90
6664;DHT22;58749;48.022;10.922;2022-09-12T05:00:11;13.30;99.90
6664;DHT22;58749;48.022;10.922;2022-09-12T05:02:58;13.30;99.90
6664;DHT22;58749;48.022;10.922;2022-09-12T05:05:43;13.30;99.90
6664;DHT22;58749;48.022;10.922;2022-09-12T05:08:29;13.40;99.90
6664;DHT22;58749;48.022;10.922;2022-09-12T05:11:16;13.40;99.90
6664;DHT22;58749;48.022;10.922;2022-09-12T05:14:02;13.40;99.90
6664;DHT22;58749;48.022;10.922;2022-09-12T05:16:50;13.40;99.90
6664;DHT22;58749;48.022;10.922;2022-09-12T05:19:35;13.50;99.90
6664;DHT22;58749;48.022;10.922;2022-09-12T05:22:21;13.50;99.90
6664;DHT22;58749;48.022;10.922;2022-09-12T05:25:07;13.40;99.90
6664;DHT22;58749;48.022;10.922;2022-09-12T05:27:53;13.40;99.90
6664;DHT22;58749;48.022;10.922;2022-09-12T05:30:39;13.50;99.90
6664;DHT22;58749;48.022;10.922;2022-09-12T05:33:26;13.50;99.90
6664;DHT22;58749;48.022;10.922;2022-09-12T05:36:14;13.50;99.90
6664;DHT22;58749;48.022;10.922;2022-09-12T05:39:00;13.50;99.90
6664;DHT22;58749;48.022;10.922;2022-09-12T05:41:47;13.50;99.90
6664;DHT22;58749;48.022;10.922;2022-09-12T05:44:32;13.50;99.90
6664;DHT22;58749;48.022;10.922;2022-09-12T05:47:18;13.50;99.90
6664;DHT22;58749;48.022;10.922;2022-09-12T05:50:06;13.40;99.90
6664;DHT22;58749;48.022;10.922;2022-09-12T05:52:54;13.40;99.90
6664;DHT22;58749;48.022;10.922;2022-09-12T05:55:40;13.50;99.90
6664;DHT22;58749;48.022;10.922;2022-09-12T05:58:26;13.50;99.90
6664;DHT22;58749;48.022;10.922;2022-09-12T06:01:13;13.50;99.90
6664;DHT22;58749;48.022;10.922;2022-09-12T06:04:01;13.50;99.90
6664;DHT22;58749;48.022;10.922;2022-09-12T06:06:49;13.60;99.90
6664;DHT22;58749;48.022;10.922;2022-09-12T06:09:35;13.60;99.90
6664;DHT22;58749;48.022;10.922;2022-09-12T06:12:20;13.60;99.90
6664;DHT22;58749;48.022;10.922;2022-09-12T06:15:07;13.60;99.90
6664;DHT22;58749;48.022;10.922;2022-09-12T06:17:52;13.50;99.90
6664;DHT22;58749;48.022;10.922;2022-09-12T06:20:43;13.60;99.90
6664;DHT22;58749;48.022;10.922;2022-09-12T06:23:30;13.60;99.90
6664;DHT22;58749;48.022;10.922;2022-09-12T06:26:17;13.70;99.90
6664;DHT22;58749;48.022;10.922;2022-09-12T06:29:05;13.70;99.90
6664;DHT22;58749;48.022;10.922;2022-09-12T06:31:51;13.70;99.90
6664;DHT22;58749;48.022;10.922;2022-09-12T06:34:37;13.70;99.90
6664;DHT22;58749;48.022;10.922;2022-09-12T06:37:23;13.80;99.90
6664;DHT22;58749;48.022;10.922;2022-09-12T06:40:10;13.80;99.90
6664;DHT22;58749;48.022;10.922;2022-09-12T06:42:55;13.80;99.90
6664;DHT22;58749;48.022;10.922;2022-09-12T06:45:47;13.80;99.90
6664;DHT22;58749;48.022;10.922;2022-09-12T06:48:33;13.80;99.90
6664;DHT22;58749;48.022;10.922;2022-09-12T06:51:19;13.90;99.90
6664;DHT22;58749;48.022;10.922;2022-09-12T06:54:05;13.90;99.90
6664;DHT22;58749;48.022;10.922;2022-09-12T06:56:52;13.90;99.90
6664;DHT22;58749;48.022;10.922;2022-09-12T06:59:38;14.00;99.90
6664;DHT22;58749;48.022;10.922;2022-09-12T07:02:24;14.00;99.90
6664;DHT22;58749;48.022;10.922;2022-09-12T07:05:10;14.00;99.90
6664;DHT22;58749;48.022;10.922;2022-09-12T07:07:57;14.00;99.90
6664;DHT22;58749;48.022;10.922;2022-09-12T07:10:42;14.00;99.90
6664;DHT22;58749;48.022;10.922;2022-09-12T07:13:30;14.00;99.90
6664;DHT22;58749;48.022;10.922;2022-09-12T07:16:16;14.00;99.90
6664;DHT22;58749;48.022;10.922;2022-09-12T07:19:04;14.10;99.90
6664;DHT22;58749;48.022;10.922;2022-09-12T07:21:50;14.10;99.90
6664;DHT22;58749;48.022;10.922;2022-09-12T07:24:35;14.10;99.90
6664;DHT22;58749;48.022;10.922;2022-09-12T07:27:21;14.10;99.90
6664;DHT22;58749;48.022;10.922;2022-09-12T07:30:09;14.10;99.90
6664;DHT22;58749;48.022;10.922;2022-09-12T07:32:54;14.10;99.90
6664;DHT22;58749;48.022;10.922;2022-09-12T07:35:40;14.10;99.90
6664;DHT22;58749;48.022;10.922;2022-09-12T07:38:26;14.00;99.90
6664;DHT22;58749;48.022;10.922;2022-09-12T07:41:12;14.00;99.90
6664;DHT22;58749;48.022;10.922;2022-09-12T07:43:59;14.00;99.90
6664;DHT22;58749;48.022;10.922;2022-09-12T07:46:47;14.00;99.90
6664;DHT22;58749;48.022;10.922;2022-09-12T07:49:33;14.10;99.90
6664;DHT22;58749;48.022;10.922;2022-09-12T07:52:19;14.10;99.90
6664;DHT22;58749;48.022;10.922;2022-09-12T07:55:05;14.20;99.90
6664;DHT22;58749;48.022;10.922;2022-09-12T07:57:51;14.30;99.90
6664;DHT22;58749;48.022;10.922;2022-09-12T08:00:37;14.30;99.90
6664;DHT22;58749;48.022;10.922;2022-09-12T08:03:24;14.40;99.90
6664;DHT22;58749;48.022;10.922;2022-09-12T08:06:11;14.50;99.90
6664;DHT22;58749;48.022;10.922;2022-09-12T08:08:57;14.60;99.90
6664;DHT22;58749;48.022;10.922;2022-09-12T08:11:43;14.70;99.90
6664;DHT22;58749;48.022;10.922;2022-09-12T08:14:29;14.80;99.90
6664;DHT22;58749;48.022;10.922;2022-09-12T08:17:14;14.90;99.90
6664;DHT22;58749;48.022;10.922;2022-09-12T08:20:02;14.90;99.90
6664;DHT22;58749;48.022;10.922;2022-09-12T08:22:47;15.00;99.90
6664;DHT22;58749;48.022;10.922;2022-09-12T08:25:33;15.00;99.90
6664;DHT22;58749;48.022;10.922;2022-09-12T08:28:19;15.10;99.90
6664;DHT22;58749;48.022;10.922;2022-09-12T08:31:06;15.10;99.90
6664;DHT22;58749;48.022;10.922;2022-09-12T08:33:54;15.20;99.90
6664;DHT22;58749;48.022;10.922;2022-09-12T08:36:42;15.20;99.90
6664;DHT22;58749;48.022;10.922;2022-09-12T08:39:27;15.40;99.90
6664;DHT22;58749;48.022;10.922;2022-09-12T08:42:19;15.50;99.90
6664;DHT22;58749;48.022;10.922;2022-09-12T08:45:16;15.60;99.90
6664;DHT22;58749;48.022;10.922;2022-09-12T08:48:04;15.70;99.90
6664;DHT22;58749;48.022;10.922;2022-09-12T08:50:50;15.80;99.90
6664;DHT22;58749;48.022;10.922;2022-09-12T08:53:38;16.00;99.90
6664;DHT22;58749;48.022;10.922;2022-09-12T08:56:25;16.10;99.90
6664;DHT22;58749;48.022;10.922;2022-09-12T08:59:12;16.20;99.90
6664;DHT22;58749;48.022;10.922;2022-09-12T09:01:59;16.40;99.90
6664;DHT22;58749;48.022;10.922;2022-09-12T09:04:49;16.50;99.90
6664;DHT22;58749;48.022;10.922;2022-09-12T09:07:57;16.50;99.90
6664;DHT22;58749;48.022;10.922;2022-09-12T09:10:49;16.60;99.90
6664;DHT22;58749;48.022;10.922;2022-09-12T09:13:44;16.70;99.90
6664;DHT22;58749;48.022;10.922;2022-09-12T09:16:53;16.80;99.90
6664;DHT22;58749;48.022;10.922;2022-09-12T09:19:44;16.90;99.90
6664;DHT22;58749;48.022;10.922;2022-09-12T09:22:39;17.00;99.90
6664;DHT22;58749;48.022;10.922;2022-09-12T09:25:39;17.10;99.90
6664;DHT22;58749;48.022;10.922;2022-09-12T09:28:33;17.10;99.90
6664;DHT22;58749;48.022;10.922;2022-09-12T09:31:22;17.10;99.90
6664;DHT22;58749;48.022;10.922;2022-09-12T09:34:12;17.20;99.90
6664;DHT22;58749;48.022;10.922;2022-09-12T09:37:04;17.20;99.90
6664;DHT22;58749;48.022;10.922;2022-09-12T09:40:00;17.40;99.90
6664;DHT22;58749;48.022;10.922;2022-09-12T09:42:54;17.50;99.90
6664;DHT22;58749;48.022;10.922;2022-09-12T09:45:43;17.50;99.90
6664;DHT22;58749;48.022;10.922;2022-09-12T09:48:30;17.60;99.90
6664;DHT22;58749;48.022;10.922;2022-09-12T09:51:20;17.70;99.90
6664;DHT22;58749;48.022;10.922;2022-09-12T09:54:16;17.70;99.90
6664;DHT22;58749;48.022;10.922;2022-09-12T09:57:03;17.80;99.90
6664;DHT22;58749;48.022;10.922;2022-09-12T09:59:48;17.90;99.90
6664;DHT22;58749;48.022;10.922;2022-09-12T10:02:36;18.00;99.90
6664;DHT22;58749;48.022;10.922;2022-09-12T10:05:21;18.10;99.90
6664;DHT22;58749;48.022;10.922;2022-09-12T10:08:07;18.10;99.90
6664;DHT22;58749;48.022;10.922;2022-09-12T10:10:56;18.20;99.90
6664;DHT22;58749;48.022;10.922;2022-09-12T10:13:54;18.20;99.90
6664;DHT22;58749;48.022;10.922;2022-09-12T10:17:26;18.30;99.90
6664;DHT22;58749;48.022;10.922;2022-09-12T10:20:36;18.40;99.90
6664;DHT22;58749;48.022;10.922;2022-09-12T10:26:45;18.40;99.90
6664;DHT22;58749;48.022;10.922;2022-09-12T10:29:34;18.40;99.90
6664;DHT22;58749;48.022;10.922;2022-09-12T10:32:27;18.40;99.90
6664;DHT22;58749;48.022;10.922;2022-09-12T10:35:17;18.40;99.90
6664;DHT22;58749;48.022;10.922;2022-09-12T10:38:06;18.50;99.90
6664;DHT22;58749;48.022;10.922;2022-09-12T10:40:59;18.60;99.90
6664;DHT22;58749;48.022;10.922;2022-09-12T10:43:45;18.70;99.90
6664;DHT22;58749;48.022;10.922;2022-09-12T10:46:31;18.70;99.90
6664;DHT22;58749;48.022;10.922;2022-09-12T10:49:24;18.80;99.90
6664;DHT22;58749;48.022;10.922;2022-09-12T10:52:19;18.90;99.90
6664;DHT22;58749;48.022;10.922;2022-09-12T10:55:12;19.00;99.90
6664;DHT22;58749;48.022;10.922;2022-09-12T10:58:27;19.00;99.90
6664;DHT22;58749;48.022;10.922;2022-09-12T11:01:28;19.00;99.90
6664;DHT22;58749;48.022;10.922;2022-09-12T11:04:25;19.10;99.10
6664;DHT22;58749;48.022;10.922;2022-09-12T11:07:32;19.10;99.90
6664;DHT22;58749;48.022;10.922;2022-09-12T11:10:36;19.20;99.90
6664;DHT22;58749;48.022;10.922;2022-09-12T11:13:36;19.30;99.70
6664;DHT22;58749;48.022;10.922;2022-09-12T11:16:30;19.30;99.90
6664;DHT22;58749;48.022;10.922;2022-09-12T11:19:44;19.40;98.90
6664;DHT22;58749;48.022;10.922;2022-09-12T11:22:39;19.50;97.70
6664;DHT22;58749;48.022;10.922;2022-09-12T11:25:32;19.50;96.60
6664;DHT22;58749;48.022;10.922;2022-09-12T11:28:29;19.50;97.70
6664;DHT22;58749;48.022;10.922;2022-09-12T11:31:30;19.60;99.70
6664;DHT22;58749;48.022;10.922;2022-09-12T11:34:26;19.70;96.60
6664;DHT22;58749;48.022;10.922;2022-09-12T11:37:31;19.70;97.00
6664;DHT22;58749;48.022;10.922;2022-09-12T11:40:26;19.80;98.10
6664;DHT22;58749;48.022;10.922;2022-09-12T11:43:18;19.80;96.90
6664;DHT22;58749;48.022;10.922;2022-09-12T11:46:13;19.70;96.90
6664;DHT22;58749;48.022;10.922;2022-09-12T11:49:05;19.80;96.50
6664;DHT22;58749;48.022;10.922;2022-09-12T11:52:00;19.80;96.20
6664;DHT22;58749;48.022;10.922;2022-09-12T11:54:49;19.90;93.50
6664;DHT22;58749;48.022;10.922;2022-09-12T11:57:40;19.90;93.80
6664;DHT22;58749;48.022;10.922;2022-09-12T12:00:32;20.00;95.20
6664;DHT22;58749;48.022;10.922;2022-09-12T12:03:24;20.00;96.00
6664;DHT22;58749;48.022;10.922;2022-09-12T12:06:16;20.00;94.40
6664;DHT22;58749;48.022;10.922;2022-09-12T12:09:04;20.10;94.30
6664;DHT22;58749;48.022;10.922;2022-09-12T12:11:53;20.10;94.40
6664;DHT22;58749;48.022;10.922;2022-09-12T12:14:42;20.20;95.30
6664;DHT22;58749;48.022;10.922;2022-09-12T12:17:30;20.30;92.80
6664;DHT22;58749;48.022;10.922;2022-09-12T12:20:17;20.30;91.90
6664;DHT22;58749;48.022;10.922;2022-09-12T12:23:03;20.40;91.30
6664;DHT22;58749;48.022;10.922;2022-09-12T12:25:53;20.40;90.60
6664;DHT22;58749;48.022;10.922;2022-09-12T12:28:58;20.40;90.30
6664;DHT22;58749;48.022;10.922;2022-09-12T12:32:22;20.50;89.60
6664;DHT22;58749;48.022;10.922;2022-09-12T12:35:39;20.60;91.70
6664;DHT22;58749;48.022;10.922;2022-09-12T12:38:45;20.60;90.30
6664;DHT22;58749;48.022;10.922;2022-09-12T12:41:46;20.70;90.90
6664;DHT22;58749;48.022;10.922;2022-09-12T12:44:49;20.70;89.80
6664;DHT22;58749;48.022;10.922;2022-09-12T12:47:40;20.70;90.60
6664;DHT22;58749;48.022;10.922;2022-09-12T12:50:27;20.80;91.00
6664;DHT22;58749;48.022;10.922;2022-09-12T12:53:21;20.80;88.90
6664;DHT22;58749;48.022;10.922;2022-09-12T12:56:28;20.80;90.10
6664;DHT22;58749;48.022;10.922;2022-09-12T12:59:19;20.90;90.70
6664;DHT22;58749;48.022;10.922;2022-09-12T13:02:05;20.90;91.20
6664;DHT22;58749;48.022;10.922;2022-09-12T13:04:51;20.90;91.20
6664;DHT22;58749;48.022;10.922;2022-09-12T13:07:39;20.90;90.80
6664;DHT22;58749;48.022;10.922;2022-09-12T13:10:27;20.90;90.80
6664;DHT22;58749;48.022;10.922;2022-09-12T13:13:22;20.90;86.20
6664;DHT22;58749;48.022;10.922;2022-09-12T13:16:10;20.90;85.60
6664;DHT22;58749;48.022;10.922;2022-09-12T13:18:59;20.90;87.50
6664;DHT22;58749;48.022;10.922;2022-09-12T13:21:54;20.90;86.00
6664;DHT22;58749;48.022;10.922;2022-09-12T13:24:42;20.90;85.60
6664;DHT22;58749;48.022;10.922;2022-09-12T13:27:30;20.90;83.50
6664;DHT22;58749;48.022;10.922;2022-09-12T13:30:16;20.90;82.70
6664;DHT22;58749;48.022;10.922;2022-09-12T13:33:09;21.00;84.60
6664;DHT22;58749;48.022;10.922;2022-09-12T13:36:20;21.00;81.70
6664;DHT22;58749;48.022;10.922;2022-09-12T13:39:13;20.90;83.80
6664;DHT22;58749;48.022;10.922;2022-09-12T13:45:22;21.00;81.20
6664;DHT22;58749;48.022;10.922;2022-09-12T13:48:12;21.00;81.10
6664;DHT22;58749;48.022;10.922;2022-09-12T13:51:01;21.00;82.20
6664;DHT22;58749;48.022;10.922;2022-09-12T13:53:47;21.00;83.60
6664;DHT22;58749;48.022;10.922;2022-09-12T13:56:45;21.10;83.10
6664;DHT22;58749;48.022;10.922;2022-09-12T13:59:37;21.10;81.50
6664;DHT22;58749;48.022;10.922;2022-09-12T14:02:25;21.20;83.10
6664;DHT22;58749;48.022;10.922;2022-09-12T14:05:16;21.20;84.10
6664;DHT22;58749;48.022;10.922;2022-09-12T14:08:06;21.20;81.20
6664;DHT22;58749;48.022;10.922;2022-09-12T14:10:52;21.20;81.10
6664;DHT22;58749;48.022;10.922;2022-09-12T14:13:38;21.20;79.00
6664;DHT22;58749;48.022;10.922;2022-09-12T14:16:24;21.20;79.50
6664;DHT22;58749;48.022;10.922;2022-09-12T14:19:12;21.30;80.20
6664;DHT22;58749;48.022;10.922;2022-09-12T14:21:59;21.30;79.20
6664;DHT22;58749;48.022;10.922;2022-09-12T14:24:45;21.20;83.00
6664;DHT22;58749;48.022;10.922;2022-09-12T14:27:40;21.10;82.60
6664;DHT22;58749;48.022;10.922;2022-09-12T14:30:30;21.10;84.80
6664;DHT22;58749;48.022;10.922;2022-09-12T14:33:19;21.20;82.20
6664;DHT22;58749;48.022;10.922;2022-09-12T14:36:16;21.20;82.00
6664;DHT22;58749;48.022;10.922;2022-09-12T14:39:04;21.20;83.60
6664;DHT22;58749;48.022;10.922;2022-09-12T14:42:03;21.10;85.10
6664;DHT22;58749;48.022;10.922;2022-09-12T14:44:55;21.10;82.20
6664;DHT22;58749;48.022;10.922;2022-09-12T14:47:42;21.00;82.70
6664;DHT22;58749;48.022;10.922;2022-09-12T14:50:31;21.00;80.70
6664;DHT22;58749;48.022;10.922;2022-09-12T14:53:24;21.10;82.10
6664;DHT22;58749;48.022;10.922;2022-09-12T14:56:12;21.00;80.30
6664;DHT22;58749;48.022;10.922;2022-09-12T14:59:26;21.00;81.30
6664;DHT22;58749;48.022;10.922;2022-09-12T15:02:24;21.00;76.30
6664;DHT22;58749;48.022;10.922;2022-09-12T15:05:23;20.90;77.20
6664;DHT22;58749;48.022;10.922;2022-09-12T15:08:13;20.90;78.30
6664;DHT22;58749;48.022;10.922;2022-09-12T15:11:00;20.90;81.50
6664;DHT22;58749;48.022;10.922;2022-09-12T15:13:46;20.80;80.80
6664;DHT22;58749;48.022;10.922;2022-09-12T15:16:32;20.70;78.00
6664;DHT22;58749;48.022;10.922;2022-09-12T15:19:17;20.70;78.90
6664;DHT22;58749;48.022;10.922;2022-09-12T15:22:03;20.70;82.30
6664;DHT22;58749;48.022;10.922;2022-09-12T15:24:49;20.70;86.20
6664;DHT22;58749;48.022;10.922;2022-09-12T15:27:36;20.70;83.60
6664;DHT22;58749;48.022;10.922;2022-09-12T15:30:24;20.70;82.90
6664;DHT22;58749;48.022;10.922;2022-09-12T15:33:10;20.70;84.60
6664;DHT22;58749;48.022;10.922;2022-09-12T15:35:55;20.70;84.40
6664;DHT22;58749;48.022;10.922;2022-09-12T15:38:42;20.80;83.20
6664;DHT22;58749;48.022;10.922;2022-09-12T15:41:30;20.70;83.20
6664;DHT22;58749;48.022;10.922;2022-09-12T15:44:17;20.70;83.90
6664;DHT22;58749;48.022;10.922;2022-09-12T15:47:03;20.70;84.70
6664;DHT22;58749;48.022;10.922;2022-09-12T15:49:49;20.70;83.00
6664;DHT22;58749;48.022;10.922;2022-09-12T15:52:35;20.70;84.70
6664;DHT22;58749;48.022;10.922;2022-09-12T15:55:21;20.60;84.50
6664;DHT22;58749;48.022;10.922;2022-09-12T15:58:07;20.60;86.50
6664;DHT22;58749;48.022;10.922;2022-09-12T16:00:54;20.60;86.70
6664;DHT22;58749;48.022;10.922;2022-09-12T16:03:40;20.60;87.10
6664;DHT22;58749;48.022;10.922;2022-09-12T16:06:26;20.60;85.50
6664;DHT22;58749;48.022;10.922;2022-09-12T16:09:12;20.50;86.20
6664;DHT22;58749;48.022;10.922;2022-09-12T16:12:17;20.50;86.60
6664;DHT22;58749;48.022;10.922;2022-09-12T16:15:05;20.40;87.10
6664;DHT22;58749;48.022;10.922;2022-09-12T16:17:52;20.40;88.60
6664;DHT22;58749;48.022;10.922;2022-09-12T16:20:38;20.40;89.00
6664;DHT22;58749;48.022;10.922;2022-09-12T16:23:24;20.30;88.20
6664;DHT22;58749;48.022;10.922;2022-09-12T16:26:11;20.30;88.10
6664;DHT22;58749;48.022;10.922;2022-09-12T16:28:57;20.20;87.80
6664;DHT22;58749;48.022;10.922;2022-09-12T16:31:42;20.20;88.20
6664;DHT22;58749;48.022;10.922;2022-09-12T16:34:29;20.10;88.20
6664;DHT22;58749;48.022;10.922;2022-09-12T16:37:15;20.10;88.80
6664;DHT22;58749;48.022;10.922;2022-09-12T16:40:02;20.00;89.40
6664;DHT22;58749;48.022;10.922;2022-09-12T16:42:47;19.90;90.10
6664;DHT22;58749;48.022;10.922;2022-09-12T16:45:33;19.90;90.50
6664;DHT22;58749;48.022;10.922;2022-09-12T16:48:18;19.90;90.00
6664;DHT22;58749;48.022;10.922;2022-09-12T16:51:06;19.80;90.30
6664;DHT22;58749;48.022;10.922;2022-09-12T16:53:52;19.70;90.20
6664;DHT22;58749;48.022;10.922;2022-09-12T16:56:38;19.80;90.40
6664;DHT22;58749;48.022;10.922;2022-09-12T16:59:24;20.00;90.30
6664;DHT22;58749;48.022;10.922;2022-09-12T17:02:11;20.10;89.90
6664;DHT22;58749;48.022;10.922;2022-09-12T17:04:57;20.20;90.00
6664;DHT22;58749;48.022;10.922;2022-09-12T17:07:44;20.10;89.80
6664;DHT22;58749;48.022;10.922;2022-09-12T17:10:30;20.00;89.80
6664;DHT22;58749;48.022;10.922;2022-09-12T17:13:16;19.90;90.00
6664;DHT22;58749;48.022;10.922;2022-09-12T17:16:04;19.80;90.30
6664;DHT22;58749;48.022;10.922;2022-09-12T17:18:50;19.70;90.60
6664;DHT22;58749;48.022;10.922;2022-09-12T17:21:36;19.60;90.90
6664;DHT22;58749;48.022;10.922;2022-09-12T17:24:23;19.50;91.20
6664;DHT22;58749;48.022;10.922;2022-09-12T17:27:09;19.40;91.20
6664;DHT22;58749;48.022;10.922;2022-09-12T17:29:55;19.30;91.50
6664;DHT22;58749;48.022;10.922;2022-09-12T17:32:41;19.20;91.50
6664;DHT22;58749;48.022;10.922;2022-09-12T17:35:26;19.10;91.60
6664;DHT22;58749;48.022;10.922;2022-09-12T17:38:12;19.00;91.70
6664;DHT22;58749;48.022;10.922;2022-09-12T17:41:05;18.90;91.70